Time;durP1;ratioP1;P1;durP2;ratioP2;P2;SDS_P1;SDS_P2;PMS_P1;PMS_P2;Temp;Humidity;BMP_temperature;BMP_pressure;BME280_temperature;BME280_humidity;BME280_pressure;Samples;Min_cycle;Max_cycle;Signal;HPM_P1;HPM_P2
2021/06/23 00:01:37;;;;;;;0.30;0.30;;;17.70;1.00;;;;;;5115023;28;20096;-75
2021/06/23 00:04:03;;;;;;;1.15;0.32;;;17.70;1.00;;;;;;5114563;28;20390;-75
2021/06/23 00:06:29;;;;;;;0.20;0.20;;;17.70;1.00;;;;;;5114742;28;20039;-75
2021/06/23 00:08:55;;;;;;;0.20;0.20;;;17.70;1.00;;;;;;5114631;28;20143;-75
2021/06/23 00:11:21;;;;;;;0.20;0.20;;;17.60;1.00;;;;;;5114668;28;20043;-75
2021/06/23 00:13:49;;;;;;;0.20;0.20;;;17.60;1.00;;;;;;5114477;28;20043;-75
2021/06/23 00:16:15;;;;;;;0.30;0.30;;;17.70;1.00;;;;;;5114239;28;20046;-75
2021/06/23 00:18:40;;;;;;;0.40;0.40;;;17.70;1.00;;;;;;5114606;28;20031;-75
2021/06/23 00:21:07;;;;;;;0.25;0.25;;;17.70;1.00;;;;;;5114578;28;20060;-75
2021/06/23 00:23:32;;;;;;;0.20;0.20;;;17.70;1.00;;;;;;5114705;28;20118;-75
2021/06/23 00:25:59;;;;;;;0.35;0.35;;;17.70;1.00;;;;;;5114533;28;20075;-75
2021/06/23 00:28:25;;;;;;;0.10;0.10;;;17.70;1.00;;;;;;5114439;28;20496;-75
2021/06/23 00:30:51;;;;;;;0.30;0.30;;;17.70;1.00;;;;;;5114923;28;20036;-75
2021/06/23 00:33:19;;;;;;;0.30;0.30;;;17.70;1.00;;;;;;5114918;28;20120;-75
2021/06/23 00:35:46;;;;;;;0.52;0.52;;;17.70;1.00;;;;;;5114482;28;20040;-75
2021/06/23 00:38:12;;;;;;;0.28;0.28;;;17.80;1.00;;;;;;5114750;28;20055;-75
2021/06/23 00:40:38;;;;;;;0.20;0.20;;;17.80;1.00;;;;;;5114427;28;20428;-75
2021/06/23 00:43:04;;;;;;;0.10;0.10;;;17.70;1.00;;;;;;5114407;28;20040;-75
2021/06/23 00:45:32;;;;;;;0.63;0.38;;;17.70;1.00;;;;;;5114397;28;20580;-75
2021/06/23 00:47:58;;;;;;;0.10;0.10;;;17.80;1.00;;;;;;5114405;28;20040;-75
2021/06/23 00:50:26;;;;;;;0.30;0.30;;;17.80;1.00;;;;;;5115190;28;20039;-75
2021/06/23 00:52:53;;;;;;;0.20;0.20;;;17.70;1.00;;;;;;5117514;28;20040;-75
2021/06/23 00:55:25;;;;;;;0.30;0.30;;;17.70;1.00;;;;;;5100547;28;20039;-75
2021/06/23 00:57:54;;;;;;;0.10;0.10;;;17.70;1.00;;;;;;5117584;28;20039;-75
2021/06/23 01:00:32;;;;;;;0.10;0.10;;;17.80;1.00;;;;;;5117914;28;20047;-75
2021/06/23 01:02:59;;;;;;;0.28;0.28;;;17.80;1.00;;;;;;5118190;28;20027;-75
2021/06/23 01:05:25;;;;;;;0.30;0.30;;;17.80;1.00;;;;;;5117701;28;20351;-75
2021/06/23 01:07:51;;;;;;;0.45;0.45;;;17.70;1.00;;;;;;5117616;28;20040;-75
2021/06/23 01:10:18;;;;;;;0.40;0.40;;;17.70;1.00;;;;;;5117833;28;20135;-75
2021/06/23 01:13:16;;;;;;;0.47;0.47;;;17.70;1.00;;;;;;5117903;28;20074;-75
2021/06/23 01:15:44;;;;;;;0.40;0.40;;;17.70;1.00;;;;;;5118034;28;20038;-75
2021/06/23 01:18:10;;;;;;;0.52;0.52;;;17.60;1.00;;;;;;5117336;28;20502;-75
2021/06/23 01:20:47;;;;;;;0.25;0.25;;;17.60;1.00;;;;;;5117911;28;20063;-75
2021/06/23 01:23:14;;;;;;;0.43;0.20;;;17.60;1.00;;;;;;5117050;28;20485;-75
2021/06/23 01:25:40;;;;;;;0.43;0.38;;;17.60;1.00;;;;;;5117618;28;20045;-75
2021/06/23 01:28:06;;;;;;;0.10;0.10;;;17.70;1.00;;;;;;5098668;28;20600;-76
2021/06/23 01:30:33;;;;;;;0.30;0.30;;;17.70;1.00;;;;;;5117226;28;20114;-75
2021/06/23 01:32:59;;;;;;;0.38;0.38;;;17.70;1.00;;;;;;5117429;28;20050;-75
2021/06/23 01:35:27;;;;;;;0.30;0.30;;;17.70;1.00;;;;;;5116697;28;20047;-75
2021/06/23 01:37:54;;;;;;;0.20;0.20;;;17.80;1.00;;;;;;5117114;28;20123;-75
2021/06/23 01:40:20;;;;;;;0.20;0.20;;;17.70;1.00;;;;;;5116786;28;20526;-75
2021/06/23 01:42:46;;;;;;;0.20;0.20;;;17.80;1.00;;;;;;5116732;28;20085;-75
2021/06/23 01:45:13;;;;;;;0.73;0.73;;;17.80;1.00;;;;;;5116704;28;20039;-75
2021/06/23 01:47:39;;;;;;;1.23;0.35;;;17.80;1.00;;;;;;5116446;28;20047;-75
2021/06/23 01:50:06;;;;;;;0.10;0.10;;;17.80;1.00;;;;;;5117454;28;20035;-75
2021/06/23 01:52:32;;;;;;;0.40;0.40;;;17.80;1.00;;;;;;5116987;28;20059;-75
2021/06/23 01:54:58;;;;;;;0.28;0.28;;;17.80;1.00;;;;;;5116519;28;20490;-75
2021/06/23 01:57:25;;;;;;;0.10;0.10;;;17.80;1.00;;;;;;5116510;28;20043;-75
2021/06/23 01:59:51;;;;;;;0.20;0.20;;;17.80;1.00;;;;;;5116364;28;20034;-75
2021/06/23 02:02:26;;;;;;;0.20;0.20;;;17.80;1.00;;;;;;5116108;28;20122;-75
2021/06/23 02:05:01;;;;;;;0.20;0.20;;;17.80;1.00;;;;;;5116453;28;20063;-75
2021/06/23 02:07:45;;;;;;;0.70;0.70;;;17.80;1.00;;;;;;5116114;28;20118;-75
2021/06/23 02:10:14;;;;;;;0.30;0.30;;;17.80;1.00;;;;;;5116810;28;20047;-75
2021/06/23 02:12:58;;;;;;;0.13;0.13;;;17.80;1.00;;;;;;5115852;28;20043;-75
2021/06/23 02:15:26;;;;;;;0.20;0.20;;;17.80;1.00;;;;;;5116376;28;20034;-75
2021/06/23 02:17:53;;;;;;;0.30;0.30;;;17.80;1.00;;;;;;5116304;28;20134;-75
2021/06/23 02:20:19;;;;;;;0.52;0.52;;;17.80;1.00;;;;;;5116018;28;20044;-75
2021/06/23 02:22:45;;;;;;;0.20;0.20;;;17.80;1.00;;;;;;5116488;28;20073;-75
2021/06/23 02:25:13;;;;;;;0.38;0.38;;;17.80;1.00;;;;;;5116145;28;20027;-75
2021/06/23 02:27:41;;;;;;;0.52;0.43;;;17.80;1.00;;;;;;5115476;28;20051;-76
2021/06/23 02:30:10;;;;;;;0.20;0.20;;;17.80;1.00;;;;;;5116751;28;20126;-75
2021/06/23 02:32:37;;;;;;;0.20;0.20;;;17.80;1.00;;;;;;5116064;28;20032;-75
2021/06/23 02:35:06;;;;;;;0.35;0.35;;;17.70;1.00;;;;;;5116172;28;20035;-75
2021/06/23 02:37:32;;;;;;;0.30;0.30;;;17.70;1.00;;;;;;5115827;28;20031;-75
2021/06/23 02:39:59;;;;;;;0.17;0.17;;;17.80;1.00;;;;;;5115934;28;20039;-74
2021/06/23 02:42:25;;;;;;;0.10;0.10;;;17.80;1.00;;;;;;5115698;28;20468;-75
2021/06/23 02:44:51;;;;;;;0.30;0.30;;;17.70;1.00;;;;;;5115514;28;20367;-75
2021/06/23 02:47:19;;;;;;;0.80;0.38;;;17.70;1.00;;;;;;5115695;28;20131;-75
2021/06/23 02:49:49;;;;;;;0.30;0.30;;;17.80;1.00;;;;;;5115399;28;20101;-75
2021/06/23 02:52:17;;;;;;;0.40;0.40;;;17.70;1.00;;;;;;5115291;28;20036;-75
2021/06/23 02:54:44;;;;;;;0.20;0.20;;;17.70;1.00;;;;;;5115659;28;20041;-75
2021/06/23 02:57:10;;;;;;;0.35;0.35;;;17.70;1.00;;;;;;5115397;28;20046;-75
2021/06/23 02:59:36;;;;;;;0.55;0.55;;;17.70;1.00;;;;;;5115569;28;20036;-75
2021/06/23 03:02:04;;;;;;;0.52;0.50;;;17.70;1.00;;;;;;5115630;28;20039;-75
2021/06/23 03:04:32;;;;;;;0.30;0.30;;;17.70;1.00;;;;;;5115116;28;20039;-75
2021/06/23 03:07:08;;;;;;;0.20;0.20;;;17.70;1.00;;;;;;5115379;28;20123;-75
2021/06/23 03:09:34;;;;;;;0.20;0.20;;;17.70;1.00;;;;;;5114906;28;20521;-75
2021/06/23 03:11:59;;;;;;;0.43;0.43;;;17.70;1.00;;;;;;5114883;28;20039;-75
2021/06/23 03:14:25;;;;;;;0.10;0.10;;;17.70;1.00;;;;;;5114588;28;20039;-75
2021/06/23 03:16:51;;;;;;;0.10;0.10;;;17.70;1.00;;;;;;5115317;28;20042;-75
2021/06/23 03:19:17;;;;;;;0.30;0.30;;;17.60;1.00;;;;;;5114948;28;20050;-74
2021/06/23 03:21:43;;;;;;;0.10;0.10;;;17.60;1.00;;;;;;5115227;28;20385;-75
2021/06/23 03:24:09;;;;;;;0.30;0.30;;;17.50;1.00;;;;;;5115293;28;20051;-75
2021/06/23 03:26:35;;;;;;;0.43;0.43;;;17.50;1.00;;;;;;5115397;28;20087;-75
2021/06/23 03:29:33;;;;;;;0.70;0.57;;;17.60;1.00;;;;;;5115037;28;20142;-75
2021/06/23 03:32:00;;;;;;;0.10;0.10;;;17.60;1.00;;;;;;5107624;28;20031;-75
2021/06/23 03:34:26;;;;;;;0.30;0.30;;;17.50;1.00;;;;;;5115056;28;20497;-75
2021/06/23 03:36:52;;;;;;;1.77;0.40;;;17.40;1.00;;;;;;5115252;28;20032;-75
2021/06/23 03:39:18;;;;;;;0.43;0.43;;;17.40;1.00;;;;;;5114957;28;20036;-75
2021/06/23 03:41:44;;;;;;;0.30;0.30;;;17.40;1.00;;;;;;5115060;28;20123;-75
2021/06/23 03:44:10;;;;;;;1.55;0.95;;;17.40;1.00;;;;;;5114868;28;20040;-75
2021/06/23 03:46:36;;;;;;;0.20;0.20;;;17.40;1.00;;;;;;5115229;28;20039;-75
2021/06/23 03:49:03;;;;;;;0.20;0.20;;;17.40;1.00;;;;;;5115141;28;20050;-75
2021/06/23 03:51:29;;;;;;;0.40;0.40;;;17.40;1.00;;;;;;5115068;28;20416;-75
2021/06/23 03:53:54;;;;;;;0.40;0.40;;;17.40;1.00;;;;;;5115180;28;20044;-75
2021/06/23 03:56:20;;;;;;;3.30;0.40;;;17.30;1.00;;;;;;5115115;28;20396;-75
2021/06/23 03:58:46;;;;;;;0.32;0.32;;;17.30;1.00;;;;;;5114964;28;20039;-75
2021/06/23 04:01:12;;;;;;;0.57;0.50;;;17.30;1.00;;;;;;5115085;28;20028;-75
2021/06/23 04:03:38;;;;;;;0.25;0.25;;;17.30;1.00;;;;;;5115004;28;20036;-75
2021/06/23 04:06:04;;;;;;;0.13;0.13;;;17.30;1.00;;;;;;5115101;28;20083;-75
2021/06/23 04:08:30;;;;;;;0.43;0.43;;;17.30;1.00;;;;;;5096710;28;20047;-75
2021/06/23 04:10:56;;;;;;;0.40;0.40;;;17.30;1.00;;;;;;5114996;28;20176;-75
2021/06/23 04:13:22;;;;;;;0.20;0.20;;;17.30;1.00;;;;;;5114872;28;20040;-75
2021/06/23 04:15:48;;;;;;;0.20;0.20;;;17.20;1.00;;;;;;5114686;28;20031;-75
2021/06/23 04:18:13;;;;;;;0.40;0.40;;;17.20;1.00;;;;;;5114765;28;20075;-75
2021/06/23 04:20:39;;;;;;;0.55;0.55;;;17.30;1.00;;;;;;5114943;28;20114;-75
2021/06/23 04:23:05;;;;;;;0.85;0.45;;;17.30;1.00;;;;;;5115112;28;20039;-75
2021/06/23 04:25:31;;;;;;;0.47;0.47;;;17.40;1.00;;;;;;5114862;28;20031;-75
2021/06/23 04:27:57;;;;;;;0.65;0.65;;;17.30;1.00;;;;;;5117438;28;20050;-75
2021/06/23 04:30:23;;;;;;;0.75;0.57;;;17.20;1.00;;;;;;5118784;28;20028;-75
2021/06/23 04:32:49;;;;;;;0.47;0.47;;;17.20;1.00;;;;;;5118014;28;20051;-75
2021/06/23 04:35:15;;;;;;;0.55;0.55;;;17.20;1.00;;;;;;5118571;28;20489;-74
2021/06/23 04:37:42;;;;;;;0.35;0.35;;;17.10;1.00;;;;;;5118309;28;20046;-75
2021/06/23 04:40:12;;;;;;;0.55;0.55;;;17.00;1.00;;;;;;5118254;28;20039;-74
2021/06/23 04:42:39;;;;;;;0.52;0.52;;;17.00;1.00;;;;;;5117810;28;20087;-75
2021/06/23 04:45:07;;;;;;;0.50;0.50;;;17.00;1.00;;;;;;5117892;28;20525;-75
2021/06/23 04:47:34;;;;;;;0.20;0.20;;;17.10;1.00;;;;;;5117985;28;20044;-75
2021/06/23 04:50:00;;;;;;;0.38;0.38;;;17.20;1.00;;;;;;5117689;28;20050;-75
2021/06/23 04:52:26;;;;;;;0.82;0.55;;;17.20;1.00;;;;;;5099383;28;20040;-75
2021/06/23 04:54:52;;;;;;;0.45;0.45;;;17.10;1.00;;;;;;5118007;28;20127;-75
2021/06/23 04:57:19;;;;;;;0.20;0.20;;;17.20;1.00;;;;;;5117781;28;20056;-75
2021/06/23 04:59:44;;;;;;;0.30;0.30;;;17.30;1.00;;;;;;5117648;28;20091;-75
2021/06/23 05:02:11;;;;;;;0.77;0.60;;;17.40;1.00;;;;;;5117731;28;20039;-75
2021/06/23 05:04:36;;;;;;;0.30;0.30;;;17.40;1.00;;;;;;5117349;28;20031;-75
2021/06/23 05:07:05;;;;;;;0.30;0.30;;;17.40;1.00;;;;;;5117351;28;20042;-75
2021/06/23 05:09:31;;;;;;;0.30;0.30;;;17.40;1.00;;;;;;5117468;28;20130;-75
2021/06/23 05:11:57;;;;;;;0.20;0.20;;;17.40;1.00;;;;;;5117214;28;20035;-75
2021/06/23 05:14:23;;;;;;;0.55;0.55;;;17.50;1.00;;;;;;5117727;28;20050;-75
2021/06/23 05:16:50;;;;;;;0.73;0.73;;;17.70;1.00;;;;;;5117584;28;20039;-75
2021/06/23 05:19:18;;;;;;;0.25;0.25;;;17.90;1.00;;;;;;5117394;28;20044;-75
2021/06/23 05:21:44;;;;;;;0.47;0.47;;;18.00;1.00;;;;;;5117696;28;20046;-75
2021/06/23 05:24:10;;;;;;;0.45;0.40;;;18.10;1.00;;;;;;5117444;28;20050;-75
2021/06/23 05:26:37;;;;;;;0.38;0.38;;;18.50;1.00;;;;;;5117070;28;20561;-75
2021/06/23 05:29:04;;;;;;;0.25;0.25;;;18.60;1.00;;;;;;5116549;28;20108;-75
2021/06/23 05:31:31;;;;;;;0.30;0.30;;;18.70;1.00;;;;;;5117839;28;20035;-75
2021/06/23 05:33:57;;;;;;;0.20;0.20;;;18.70;1.00;;;;;;5117295;28;20039;-75
2021/06/23 05:36:23;;;;;;;0.38;0.38;;;18.90;1.00;;;;;;5117057;28;20028;-75
2021/06/23 05:38:49;;;;;;;0.47;0.47;;;18.90;1.00;;;;;;5117006;28;20108;-75
2021/06/23 05:41:15;;;;;;;0.20;0.20;;;18.90;1.00;;;;;;5117485;28;20042;-75
2021/06/23 05:43:41;;;;;;;0.82;0.80;;;19.10;1.00;;;;;;5117256;28;20074;-75
2021/06/23 05:46:07;;;;;;;0.47;0.47;;;19.00;1.00;;;;;;5116990;28;20394;-75
2021/06/23 05:48:33;;;;;;;0.13;0.13;;;18.90;1.00;;;;;;5116937;28;20047;-74
2021/06/23 05:50:59;;;;;;;0.28;0.22;;;18.90;1.00;;;;;;5117082;28;20040;-75
2021/06/23 05:53:25;;;;;;;0.43;0.43;;;18.70;1.00;;;;;;5117060;28;20516;-75
2021/06/23 05:55:53;;;;;;;0.20;0.20;;;18.70;1.00;;;;;;5116610;28;20031;-75
2021/06/23 05:58:18;;;;;;;0.63;0.63;;;18.80;1.00;;;;;;5116319;28;20043;-75
2021/06/23 06:00:44;;;;;;;0.30;0.30;;;18.80;1.00;;;;;;5116689;28;20036;-74
2021/06/23 06:03:10;;;;;;;1.88;0.65;;;19.20;1.00;;;;;;5116844;28;20124;-75
2021/06/23 06:05:36;;;;;;;0.38;0.38;;;19.30;1.00;;;;;;5116652;28;20036;-75
2021/06/23 06:08:02;;;;;;;0.43;0.43;;;19.20;1.00;;;;;;5116648;28;20438;-75
2021/06/23 06:10:28;;;;;;;0.63;0.63;;;19.10;1.00;;;;;;5116718;28;20486;-75
2021/06/23 06:12:54;;;;;;;0.73;0.57;;;19.20;1.00;;;;;;5116251;28;20469;-74
2021/06/23 06:15:19;;;;;;;1.73;0.77;;;19.00;1.00;;;;;;5111991;28;20118;-76
2021/06/23 06:17:45;;;;;;;2.90;0.50;;;19.00;1.00;;;;;;5083392;28;20536;-71
2021/06/23 06:20:12;;;;;;;0.52;0.52;;;19.10;1.00;;;;;;5100873;27;20436;-74
2021/06/23 06:22:38;;;;;;;0.75;0.75;;;19.00;1.00;;;;;;5089317;28;20074;-75
2021/06/23 06:25:05;;;;;;;0.85;0.60;;;19.00;1.00;;;;;;5093676;27;20063;-76
2021/06/23 06:27:31;;;;;;;0.55;0.55;;;18.90;1.00;;;;;;5108592;27;20532;-75
2021/06/23 06:29:58;;;;;;;0.47;0.47;;;19.00;1.00;;;;;;5097621;28;20059;-76
2021/06/23 06:32:24;;;;;;;0.13;0.13;;;18.90;1.00;;;;;;5089037;28;20089;-76
2021/06/23 06:34:50;;;;;;;0.68;0.68;;;18.90;1.00;;;;;;5094964;28;20050;-76
2021/06/23 06:37:16;;;;;;;0.20;0.20;;;18.90;1.00;;;;;;5093998;28;20115;-76
2021/06/23 06:39:42;;;;;;;0.40;0.40;;;18.90;1.00;;;;;;5094559;28;20036;-76
2021/06/23 06:42:07;;;;;;;0.73;0.73;;;18.90;1.00;;;;;;5094319;28;20036;-76
2021/06/23 06:44:34;;;;;;;0.57;0.57;;;19.20;1.00;;;;;;5090574;28;20027;-75
2021/06/23 06:47:01;;;;;;;0.82;0.40;;;19.30;1.00;;;;;;5093849;28;20067;-76
2021/06/23 06:49:29;;;;;;;0.20;0.20;;;19.40;1.00;;;;;;5093278;28;20047;-75
2021/06/23 06:51:58;;;;;;;2.28;0.50;;;19.70;1.00;;;;;;5094154;28;20040;-76
2021/06/23 06:54:25;;;;;;;1.00;0.95;;;19.90;1.00;;;;;;5094466;28;20101;-76
2021/06/23 06:56:51;;;;;;;0.30;0.30;;;20.10;1.00;;;;;;5094005;28;20101;-76
2021/06/23 06:59:18;;;;;;;1.00;0.82;;;20.10;1.00;;;;;;5094219;28;20036;-76
2021/06/23 07:01:45;;;;;;;0.30;0.30;;;19.90;1.00;;;;;;5093990;28;20036;-77
2021/06/23 07:04:11;;;;;;;1.00;0.77;;;19.70;1.00;;;;;;5113551;28;20031;-74
2021/06/23 07:06:37;;;;;;;0.40;0.40;;;19.90;1.00;;;;;;5114782;28;20031;-74
2021/06/23 07:09:03;;;;;;;0.75;0.75;;;20.00;1.00;;;;;;5113923;28;20043;-74
2021/06/23 07:11:29;;;;;;;0.40;0.40;;;20.30;1.00;;;;;;5115020;28;20039;-74
2021/06/23 07:13:55;;;;;;;0.40;0.40;;;21.20;1.00;;;;;;5114980;28;20035;-74
2021/06/23 07:16:21;;;;;;;0.93;0.93;;;25.00;1.00;;;;;;5115316;28;20116;-74
2021/06/23 07:18:48;;;;;;;0.60;0.60;;;27.00;1.00;;;;;;5115165;28;20481;-74
2021/06/23 07:21:18;;;;;;;0.77;0.75;;;25.20;1.00;;;;;;5115146;28;20043;-74
2021/06/23 07:23:44;;;;;;;1.20;1.20;;;25.30;1.00;;;;;;5115126;28;20058;-73
2021/06/23 07:26:11;;;;;;;0.73;0.73;;;24.20;1.00;;;;;;5115230;28;20047;-74
2021/06/23 07:28:46;;;;;;;0.80;0.80;;;23.00;1.00;;;;;;5114541;28;20051;-74
2021/06/23 07:31:15;;;;;;;3.20;1.08;;;22.40;1.00;;;;;;5114774;28;20036;-74
2021/06/23 07:33:50;;;;;;;0.98;0.70;;;23.50;1.00;;;;;;5115294;28;20040;-73
2021/06/23 07:39:03;;;;;;;0.45;0.45;;;22.40;1.00;;;;;;5114536;28;20061;-74
2021/06/23 07:41:29;;;;;;;0.60;0.60;;;22.30;1.00;;;;;;5114939;28;20038;-73
2021/06/23 07:43:54;;;;;;;0.88;0.88;;;22.00;1.00;;;;;;5114621;28;20393;-74
2021/06/23 07:46:20;;;;;;;0.30;0.30;;;22.50;1.00;;;;;;5114909;28;20183;-74
2021/06/23 07:48:49;;;;;;;1.02;0.60;;;23.00;1.00;;;;;;5108221;28;20402;-74
2021/06/23 07:51:20;;;;;;;0.65;0.45;;;22.40;1.00;;;;;;5085889;28;20437;-74
2021/06/23 07:56:29;;;;;;;0.30;0.30;;;22.40;1.00;;;;;;5074292;28;20032;-74
2021/06/23 08:09:40;;;;;;;1.42;0.50;;;22.10;1.00;;;;;;5077802;28;20045;-74
2021/06/23 08:14:38;;;;;;;1.48;0.45;;;22.00;1.00;;;;;;5077744;28;20517;-74
2021/06/23 08:17:05;;;;;;;5.55;1.63;;;21.90;1.00;;;;;;5077648;28;20044;-74
2021/06/23 08:19:30;;;;;;;0.30;0.30;;;21.90;1.00;;;;;;5077312;28;20071;-74
2021/06/23 08:21:56;;;;;;;1.17;0.60;;;21.60;1.00;;;;;;5077171;28;20498;-74
2021/06/23 08:24:22;;;;;;;0.50;0.50;;;21.30;1.00;;;;;;5077787;28;20082;-74
2021/06/23 08:26:49;;;;;;;1.00;0.52;;;21.20;1.00;;;;;;5077379;28;20033;-74
2021/06/23 08:29:14;;;;;;;0.80;0.80;;;21.30;1.00;;;;;;5076813;28;20080;-74
2021/06/23 08:31:40;;;;;;;0.40;0.40;;;21.30;1.00;;;;;;5077684;28;20041;-74
2021/06/23 08:34:06;;;;;;;0.85;0.85;;;21.30;1.00;;;;;;5077418;28;20119;-74
2021/06/23 08:36:32;;;;;;;0.75;0.75;;;21.40;1.00;;;;;;5077362;28;20516;-74
2021/06/23 08:38:58;;;;;;;0.50;0.50;;;21.60;1.00;;;;;;5059516;28;20406;-74
2021/06/23 08:41:26;;;;;;;0.50;0.50;;;21.60;1.00;;;;;;5077501;28;20491;-74
2021/06/23 08:43:55;;;;;;;0.73;0.73;;;21.60;1.00;;;;;;5077776;28;20081;-73
2021/06/23 08:46:21;;;;;;;0.30;0.30;;;21.70;1.00;;;;;;5077469;28;20032;-73
2021/06/23 08:48:46;;;;;;;0.30;0.30;;;22.00;1.00;;;;;;5077358;28;20050;-73
2021/06/23 08:51:13;;;;;;;0.80;0.80;;;21.80;1.00;;;;;;5077688;28;20047;-74
2021/06/23 08:53:39;;;;;;;0.75;0.65;;;22.30;1.00;;;;;;5077773;28;20066;-73
2021/06/23 08:56:07;;;;;;;0.73;0.73;;;22.60;1.00;;;;;;5077581;28;20030;-73
2021/06/23 08:58:35;;;;;;;0.55;0.55;;;22.50;1.00;;;;;;5059446;28;20036;-74
2021/06/23 09:01:01;;;;;;;1.05;1.05;;;22.50;1.00;;;;;;5077427;28;20568;-73
2021/06/23 09:03:27;;;;;;;0.22;0.22;;;22.30;1.00;;;;;;5077437;28;20040;-73
2021/06/23 09:05:56;;;;;;;2.67;1.20;;;22.20;1.00;;;;;;5077309;28;20374;-74
2021/06/23 09:08:34;;;;;;;0.55;0.55;;;22.00;1.00;;;;;;5077288;28;20068;-74
2021/06/23 09:11:02;;;;;;;0.30;0.30;;;22.00;1.00;;;;;;5077215;28;20058;-73
2021/06/23 09:13:29;;;;;;;0.65;0.50;;;22.00;1.00;;;;;;5076124;28;20062;-74
2021/06/23 09:15:58;;;;;;;0.65;0.65;;;21.90;1.00;;;;;;5076865;28;20058;-74
2021/06/23 09:18:33;;;;;;;1.23;0.60;;;22.00;1.00;;;;;;5059112;28;20048;-73
2021/06/23 09:21:05;;;;;;;0.88;0.88;;;21.90;1.00;;;;;;5058959;28;20037;-73
2021/06/23 09:23:42;;;;;;;0.35;0.35;;;21.90;1.00;;;;;;5077115;28;20104;-74
2021/06/23 09:26:09;;;;;;;0.30;0.30;;;22.10;1.00;;;;;;5076909;28;20033;-73
2021/06/23 09:28:35;;;;;;;1.08;0.82;;;22.30;1.00;;;;;;5075733;28;20056;-73
2021/06/23 09:31:01;;;;;;;0.40;0.38;;;22.40;1.00;;;;;;5076394;28;20046;-73
2021/06/23 09:33:27;;;;;;;0.47;0.38;;;22.30;1.00;;;;;;5076368;28;20520;-73
2021/06/23 09:35:56;;;;;;;0.30;0.30;;;22.30;1.00;;;;;;5076464;28;20040;-73
2021/06/23 09:38:37;;;;;;;0.28;0.28;;;22.70;1.00;;;;;;5076223;28;20075;-73
2021/06/23 09:41:17;;;;;;;0.57;0.57;;;22.90;1.00;;;;;;5076948;28;20037;-72
2021/06/23 09:43:44;;;;;;;0.25;0.25;;;22.60;1.00;;;;;;5075848;28;20033;-73
2021/06/23 09:46:18;;;;;;;1.10;0.82;;;22.40;1.00;;;;;;5076060;28;20041;-73
2021/06/23 09:48:45;;;;;;;0.40;0.40;;;22.60;1.00;;;;;;5076173;28;20049;-73
2021/06/23 09:51:21;;;;;;;0.65;0.65;;;22.80;1.00;;;;;;5076253;28;20045;-73
2021/06/23 09:53:48;;;;;;;0.40;0.40;;;22.90;1.00;;;;;;5076479;28;20040;-74
2021/06/23 09:56:25;;;;;;;0.35;0.30;;;22.90;1.00;;;;;;5076198;28;20036;-74
2021/06/23 09:58:54;;;;;;;0.52;0.52;;;22.80;1.00;;;;;;5075877;28;20040;-74
2021/06/23 10:01:20;;;;;;;0.45;0.45;;;22.80;1.00;;;;;;5075821;28;20070;-74
2021/06/23 10:03:57;;;;;;;0.20;0.20;;;22.70;1.00;;;;;;5076184;28;20089;-73
2021/06/23 10:06:32;;;;;;;4.15;1.08;;;22.70;1.00;;;;;;5076315;28;20493;-73
2021/06/23 10:09:21;;;;;;;2.03;0.40;;;22.90;1.00;;;;;;5075882;28;20494;-73
2021/06/23 10:11:53;;;;;;;0.82;0.82;;;22.80;1.00;;;;;;5057728;28;20040;-74
2021/06/23 10:14:20;;;;;;;0.40;0.40;;;22.80;1.00;;;;;;5075864;28;20036;-73
2021/06/23 10:16:50;;;;;;;0.28;0.28;;;22.80;1.00;;;;;;5075465;28;20036;-74
2021/06/23 10:19:17;;;;;;;0.57;0.57;;;22.80;1.00;;;;;;5075521;28;20533;-74
2021/06/23 10:21:44;;;;;;;0.52;0.52;;;22.90;1.00;;;;;;5075714;28;20047;-74
2021/06/23 10:24:12;;;;;;;1.50;0.65;;;22.80;1.00;;;;;;5075468;28;20039;-74
2021/06/23 10:26:47;;;;;;;0.38;0.38;;;22.80;1.00;;;;;;5075597;28;20040;-74
2021/06/23 10:29:15;;;;;;;1.35;1.25;;;22.60;1.00;;;;;;5074901;28;20060;-74
2021/06/23 10:31:41;;;;;;;0.45;0.45;;;22.40;1.00;;;;;;5074814;28;20068;-74
2021/06/23 10:34:08;;;;;;;0.45;0.45;;;22.40;1.00;;;;;;5075294;28;20040;-73
2021/06/23 10:36:34;;;;;;;0.63;0.63;;;22.60;1.00;;;;;;5072631;28;20556;-74
2021/06/23 10:39:04;;;;;;;0.98;0.77;;;22.60;1.00;;;;;;5072349;28;20040;-74
2021/06/23 10:41:46;;;;;;;1.10;1.08;;;22.60;1.00;;;;;;5073755;28;20040;-74
2021/06/23 10:44:22;;;;;;;0.20;0.20;;;22.60;1.00;;;;;;5072770;28;20506;-74
2021/06/23 10:47:05;;;;;;;0.55;0.55;;;22.90;1.00;;;;;;5068754;28;20036;-75
2021/06/23 10:49:46;;;;;;;0.75;0.75;;;22.90;1.00;;;;;;5073635;28;20502;-74
2021/06/23 10:52:20;;;;;;;0.90;0.90;;;23.10;1.00;;;;;;5073877;28;20047;-75
2021/06/23 10:54:50;;;;;;;0.68;0.68;;;23.30;1.00;;;;;;5072581;28;20575;-75
2021/06/23 10:57:39;;;;;;;0.65;0.65;;;23.40;1.00;;;;;;5073372;28;20444;-75
2021/06/23 11:00:11;;;;;;;0.43;0.43;;;23.30;1.00;;;;;;5074186;28;20036;-74
2021/06/23 11:02:41;;;;;;;0.57;0.57;;;23.70;1.00;;;;;;5073941;28;20040;-75
2021/06/23 11:05:18;;;;;;;0.65;0.52;;;23.70;1.00;;;;;;5073386;28;20033;-75
2021/06/23 11:07:49;;;;;;;0.57;0.50;;;23.80;1.00;;;;;;5073814;28;20040;-74
2021/06/23 11:10:18;;;;;;;0.75;0.50;;;23.70;1.00;;;;;;5074214;28;20044;-75
2021/06/23 11:12:44;;;;;;;0.90;0.88;;;24.00;1.00;;;;;;5073358;28;20040;-75
2021/06/23 11:15:11;;;;;;;0.98;0.98;;;24.00;1.00;;;;;;5073203;28;20047;-75
2021/06/23 11:17:37;;;;;;;0.55;0.55;;;24.10;1.00;;;;;;5073564;28;20049;-75
2021/06/23 11:20:24;;;;;;;0.60;0.60;;;24.00;1.00;;;;;;5073917;28;20090;-75
2021/06/23 11:22:56;;;;;;;0.98;0.98;;;23.80;1.00;;;;;;5073248;28;20050;-75
2021/06/23 11:25:34;;;;;;;1.33;1.25;;;23.30;1.00;;;;;;5073705;28;20032;-75
2021/06/23 11:28:09;;;;;;;0.60;0.60;;;23.50;1.00;;;;;;5072945;28;20550;-76
2021/06/23 11:31:09;;;;;;;0.55;0.55;;;23.70;1.00;;;;;;5073906;28;20039;-75
2021/06/23 11:33:38;;;;;;;0.57;0.57;;;23.90;1.00;;;;;;5063502;28;20513;-74
2021/06/23 11:36:09;;;;;;;0.40;0.40;;;23.90;1.00;;;;;;5074401;28;20028;-74
2021/06/23 11:38:36;;;;;;;0.82;0.82;;;24.00;1.00;;;;;;5074501;28;20051;-74
2021/06/23 11:41:04;;;;;;;0.88;0.88;;;23.90;1.00;;;;;;5074208;28;20056;-74
2021/06/23 11:43:31;;;;;;;0.22;0.22;;;24.00;1.00;;;;;;5074567;28;20052;-74
2021/06/23 11:45:57;;;;;;;2.53;0.95;;;24.20;1.00;;;;;;5075010;28;20033;-74
2021/06/23 11:48:26;;;;;;;1.55;0.50;;;24.00;1.00;;;;;;5074375;28;20040;-74
2021/06/23 11:50:54;;;;;;;0.80;0.80;;;24.00;1.00;;;;;;5056341;28;20043;-74
2021/06/23 11:53:22;;;;;;;1.75;0.40;;;24.00;1.00;;;;;;5074352;28;20471;-74
2021/06/23 11:55:50;;;;;;;0.95;0.95;;;24.00;1.00;;;;;;5074635;28;20067;-74
2021/06/23 11:58:16;;;;;;;0.60;0.60;;;24.10;1.00;;;;;;5074222;28;20048;-74
2021/06/23 12:00:43;;;;;;;0.38;0.38;;;24.10;1.00;;;;;;5074014;28;20355;-74
2021/06/23 12:03:19;;;;;;;0.70;0.70;;;23.90;1.00;;;;;;5074393;28;20043;-74
2021/06/23 12:05:46;;;;;;;0.95;0.45;;;23.90;1.00;;;;;;5075085;28;20036;-75
2021/06/23 12:08:12;;;;;;;2.20;1.00;;;23.70;1.00;;;;;;5074511;28;20044;-75
2021/06/23 12:10:39;;;;;;;0.98;0.90;;;24.00;1.00;;;;;;5074113;28;20043;-74
2021/06/23 12:13:05;;;;;;;0.52;0.52;;;23.80;1.00;;;;;;5074077;28;20059;-75
2021/06/23 12:15:33;;;;;;;0.45;0.45;;;23.50;1.00;;;;;;5073918;28;20394;-74
2021/06/23 12:18:01;;;;;;;0.20;0.20;;;23.60;1.00;;;;;;5074177;28;20025;-75
2021/06/23 12:20:30;;;;;;;0.90;0.90;;;23.70;1.00;;;;;;5074122;28;20486;-74
2021/06/23 12:22:57;;;;;;;0.30;0.30;;;23.80;1.00;;;;;;5074084;28;20043;-75
2021/06/23 12:25:25;;;;;;;0.60;0.60;;;23.60;1.00;;;;;;5074570;28;20033;-75
2021/06/23 12:27:54;;;;;;;0.68;0.68;;;23.90;1.00;;;;;;5073977;28;20083;-75
2021/06/23 12:30:22;;;;;;;1.05;0.88;;;23.60;1.00;;;;;;5073670;28;20044;-74
2021/06/23 12:32:48;;;;;;;1.20;0.80;;;23.50;1.00;;;;;;5073841;28;20040;-74
2021/06/23 12:35:14;;;;;;;0.73;0.50;;;23.20;1.00;;;;;;5073645;28;20120;-74
2021/06/23 12:37:40;;;;;;;0.50;0.50;;;23.10;1.00;;;;;;5073617;28;20084;-75
2021/06/23 12:40:06;;;;;;;0.70;0.40;;;23.00;1.00;;;;;;5074467;28;20489;-75
2021/06/23 12:42:33;;;;;;;0.60;0.60;;;22.90;1.00;;;;;;5073998;28;20037;-74
2021/06/23 12:44:59;;;;;;;0.20;0.20;;;22.70;1.00;;;;;;5073892;28;20063;-75
2021/06/23 12:47:24;;;;;;;0.20;0.20;;;22.50;1.00;;;;;;5074613;28;20470;-74
2021/06/23 12:49:50;;;;;;;0.60;0.60;;;22.40;1.00;;;;;;5077038;28;20106;-74
2021/06/23 12:52:16;;;;;;;0.68;0.57;;;22.40;1.00;;;;;;5077806;28;20037;-74
2021/06/23 12:54:42;;;;;;;1.35;1.10;;;22.30;1.00;;;;;;5077073;28;20572;-74
2021/06/23 12:57:08;;;;;;;0.88;0.88;;;22.30;1.00;;;;;;5076874;28;20059;-75
2021/06/23 12:59:34;;;;;;;0.30;0.30;;;22.30;1.00;;;;;;5077197;28;20037;-74
2021/06/23 13:02:00;;;;;;;0.82;0.82;;;22.40;1.00;;;;;;5077243;28;20040;-74
2021/06/23 13:04:27;;;;;;;0.47;0.47;;;22.00;1.00;;;;;;5077248;28;20129;-74
2021/06/23 13:06:54;;;;;;;0.82;0.82;;;22.00;1.00;;;;;;5059122;28;20041;-74
2021/06/23 13:09:20;;;;;;;1.60;0.75;;;21.90;1.00;;;;;;5077043;28;20508;-74
2021/06/23 13:11:47;;;;;;;0.30;0.30;;;21.70;1.00;;;;;;5076810;28;20487;-74
2021/06/23 13:14:13;;;;;;;0.52;0.52;;;21.60;1.00;;;;;;5076629;28;20071;-74
2021/06/23 13:16:39;;;;;;;0.25;0.25;;;21.30;1.00;;;;;;5077168;28;20032;-74
2021/06/23 13:19:05;;;;;;;1.02;0.73;;;21.30;1.00;;;;;;5076639;28;20124;-75
2021/06/23 13:21:30;;;;;;;1.42;0.57;;;21.20;1.00;;;;;;5076705;28;20048;-75